createdAt,value
2023-03-08T00:01:36.157Z,81.30
2023-03-08T00:04:03.964Z,82.50
2023-03-08T00:06:31.616Z,82.30
2023-03-08T00:09:00.649Z,82.60
2023-03-08T00:11:28.659Z,82.10
2023-03-08T00:13:57.113Z,81.90
2023-03-08T00:16:24.716Z,81.80
2023-03-08T00:18:52.277Z,81.00
2023-03-08T00:21:20.008Z,81.60
2023-03-08T00:23:47.578Z,81.80
2023-03-08T00:26:15.444Z,81.80
2023-03-08T00:28:43.159Z,82.10
2023-03-08T00:31:12.622Z,81.60
2023-03-08T00:33:47.033Z,80.50
2023-03-08T00:36:16.307Z,79.80
2023-03-08T00:38:44.535Z,80.80
2023-03-08T00:41:12.363Z,80.60
2023-03-08T00:43:42.520Z,80.60
2023-03-08T00:46:10.084Z,80.30
2023-03-08T00:48:37.941Z,79.90
2023-03-08T00:51:06.061Z,80.20
2023-03-08T00:53:33.861Z,79.20
2023-03-08T00:56:02.379Z,79.30
2023-03-08T00:58:30.367Z,78.40
2023-03-08T01:01:01.036Z,78.00
2023-03-08T01:03:32.520Z,77.80
2023-03-08T01:06:00.163Z,77.80
2023-03-08T01:08:27.800Z,77.50
2023-03-08T01:10:59.757Z,77.20
2023-03-08T01:13:28.869Z,76.90
2023-03-08T01:15:56.725Z,76.40
2023-03-08T01:18:25.281Z,76.20
2023-03-08T01:21:03.233Z,77.00
2023-03-08T01:23:31.485Z,76.30
2023-03-08T01:26:00.148Z,76.70
2023-03-08T01:28:28.403Z,76.90
2023-03-08T01:31:01.289Z,75.80
2023-03-08T01:33:28.951Z,76.00
2023-03-08T01:35:57.919Z,75.40
2023-03-08T01:38:42.122Z,75.30
2023-03-08T01:41:20.066Z,75.10
2023-03-08T01:44:01.230Z,74.90
2023-03-08T01:46:29.175Z,75.00
2023-03-08T01:49:01.399Z,74.60
2023-03-08T01:51:34.902Z,75.50
2023-03-08T01:54:23.282Z,74.10
2023-03-08T01:56:52.247Z,74.10
2023-03-08T01:59:21.202Z,74.20
2023-03-08T02:01:50.282Z,73.50
2023-03-08T02:04:18.114Z,73.60
2023-03-08T02:07:02.655Z,73.60
2023-03-08T02:09:30.686Z,73.60
2023-03-08T02:12:00.856Z,73.20
2023-03-08T02:14:29.190Z,73.20
2023-03-08T02:16:57.178Z,73.10
2023-03-08T02:19:29.080Z,72.80
2023-03-08T02:21:56.598Z,72.70
2023-03-08T02:24:25.508Z,72.50
2023-03-08T02:26:58.388Z,72.20
2023-03-08T02:29:26.111Z,72.00
2023-03-08T02:31:54.152Z,72.00
2023-03-08T02:34:22.018Z,71.90
2023-03-08T02:36:51.711Z,71.90
2023-03-08T02:39:19.572Z,71.70
2023-03-08T02:41:47.726Z,71.60
2023-03-08T02:44:15.282Z,71.50
2023-03-08T02:46:43.480Z,71.40
2023-03-08T02:49:11.224Z,71.40
2023-03-08T02:51:39.266Z,70.90
2023-03-08T02:54:07.265Z,70.50
2023-03-08T02:59:09.812Z,70.30
2023-03-08T03:01:38.113Z,70.20
2023-03-08T03:04:05.668Z,70.20
2023-03-08T03:06:35.206Z,69.80
2023-03-08T03:09:07.530Z,70.00
2023-03-08T03:11:35.269Z,70.00
2023-03-08T03:14:03.731Z,69.90
2023-03-08T03:16:33.524Z,69.90
2023-03-08T03:19:04.301Z,69.90
2023-03-08T03:21:33.117Z,70.00
2023-03-08T03:24:00.741Z,69.80
2023-03-08T03:26:28.698Z,69.70
2023-03-08T03:28:57.605Z,69.60
2023-03-08T03:31:25.818Z,69.60
2023-03-08T03:33:54.652Z,69.50
2023-03-08T03:36:23.491Z,69.60
2023-03-08T03:38:51.683Z,69.70
2023-03-08T03:41:21.455Z,69.50
2023-03-08T03:43:58.185Z,69.60
2023-03-08T03:46:26.726Z,69.50
2023-03-08T03:48:54.514Z,69.40
2023-03-08T03:51:23.266Z,69.40
2023-03-08T03:53:54.163Z,69.20
2023-03-08T03:56:26.332Z,69.10
2023-03-08T03:58:54.941Z,69.10
2023-03-08T04:01:37.000Z,68.80
2023-03-08T04:04:04.686Z,68.60
2023-03-08T04:06:33.937Z,68.60
2023-03-08T04:09:02.740Z,68.50
2023-03-08T04:11:34.982Z,68.20
2023-03-08T04:14:03.872Z,68.10
2023-03-08T04:16:32.613Z,68.00
2023-03-08T04:19:02.004Z,67.70
2023-03-08T04:21:30.351Z,67.10
2023-03-08T04:24:00.584Z,67.30
2023-03-08T04:26:28.629Z,66.70
2023-03-08T04:28:56.525Z,66.30
2023-03-08T04:31:29.201Z,65.30
2023-03-08T04:33:58.549Z,65.30
2023-03-08T04:36:26.239Z,65.50
2023-03-08T04:38:53.824Z,65.20
2023-03-08T04:41:21.571Z,65.70
2023-03-08T04:43:56.178Z,65.70
2023-03-08T04:46:26.495Z,66.00
2023-03-08T04:48:56.043Z,65.40
2023-03-08T04:51:25.989Z,65.50
2023-03-08T04:53:53.870Z,65.70
2023-03-08T04:56:21.705Z,63.80
2023-03-08T04:58:52.204Z,62.50
2023-03-08T05:01:21.197Z,62.20
2023-03-08T05:03:57.461Z,63.20
2023-03-08T05:06:29.369Z,64.20
2023-03-08T05:08:56.981Z,64.90
2023-03-08T05:11:26.283Z,64.80
2023-03-08T05:13:54.925Z,63.00
2023-03-08T05:16:22.660Z,62.50
2023-03-08T05:18:51.540Z,62.40
2023-03-08T05:21:21.004Z,62.70
2023-03-08T05:23:48.613Z,62.50
2023-03-08T05:26:17.412Z,62.70
2023-03-08T05:28:45.070Z,61.50
2023-03-08T05:31:18.263Z,62.00
2023-03-08T05:33:47.268Z,62.00
2023-03-08T05:36:15.179Z,61.80
2023-03-08T05:38:44.060Z,61.50
2023-03-08T05:41:16.558Z,61.70
2023-03-08T05:43:44.590Z,61.90
2023-03-08T05:46:17.568Z,62.30
2023-03-08T05:48:47.200Z,62.10
2023-03-08T05:51:16.601Z,62.00
2023-03-08T05:53:44.418Z,60.40
2023-03-08T05:56:16.907Z,61.00
2023-03-08T05:58:47.758Z,61.50
2023-03-08T06:01:19.545Z,59.70
2023-03-08T06:03:48.151Z,58.80
2023-03-08T06:06:16.994Z,60.00
2023-03-08T06:08:44.953Z,59.50
2023-03-08T06:11:15.058Z,59.70
2023-03-08T06:13:48.340Z,59.60
2023-03-08T06:16:16.411Z,58.40
2023-03-08T06:18:44.962Z,58.10
2023-03-08T06:21:18.033Z,58.20
2023-03-08T06:23:46.493Z,58.00
2023-03-08T06:26:15.594Z,58.40
2023-03-08T06:28:43.432Z,58.70
2023-03-08T06:31:15.605Z,58.70
2023-03-08T06:33:44.783Z,56.50
2023-03-08T06:36:14.032Z,55.80
2023-03-08T06:38:43.631Z,56.60
2023-03-08T06:41:12.838Z,56.60
2023-03-08T06:43:41.443Z,59.50
2023-03-08T06:46:11.455Z,58.20
2023-03-08T06:48:39.243Z,59.60
2023-03-08T06:51:07.564Z,59.60
2023-03-08T06:53:39.395Z,59.50
2023-03-08T06:56:07.897Z,59.80
2023-03-08T06:58:38.238Z,57.80
2023-03-08T07:01:06.475Z,59.40
2023-03-08T07:03:34.221Z,59.20
2023-03-08T07:06:11.389Z,56.20
2023-03-08T07:08:40.328Z,57.50
2023-03-08T07:11:10.818Z,51.50
2023-03-08T07:13:39.870Z,54.30
2023-03-08T07:16:08.953Z,58.10
2023-03-08T07:18:37.381Z,58.20
2023-03-08T07:21:04.987Z,56.80
2023-03-08T07:23:32.730Z,57.20
2023-03-08T07:26:01.171Z,56.20
2023-03-08T07:28:29.017Z,56.70
2023-03-08T07:30:57.665Z,57.10
2023-03-08T07:33:26.853Z,55.10
2023-03-08T07:35:54.707Z,55.40
2023-03-08T07:38:23.139Z,56.40
2023-03-08T07:40:55.437Z,54.70
2023-03-08T07:43:26.886Z,54.90
2023-03-08T07:45:54.504Z,56.10
2023-03-08T07:48:22.590Z,56.60
2023-03-08T07:50:51.315Z,56.80
2023-03-08T07:53:19.767Z,57.30
2023-03-08T07:55:47.648Z,56.30
2023-03-08T07:58:15.580Z,56.50
2023-03-08T08:00:43.915Z,53.20
2023-03-08T08:03:14.363Z,53.40
2023-03-08T08:05:45.409Z,52.90
2023-03-08T08:08:14.871Z,54.00
2023-03-08T08:10:43.690Z,55.40
2023-03-08T08:13:12.679Z,55.50
2023-03-08T08:15:40.365Z,56.30
2023-03-08T08:18:08.011Z,52.60
2023-03-08T08:20:38.050Z,54.20
2023-03-08T08:23:06.852Z,52.60
2023-03-08T08:25:34.752Z,53.20
2023-03-08T08:28:02.510Z,51.90
2023-03-08T08:30:30.301Z,52.80
2023-03-08T08:32:58.330Z,51.00
2023-03-08T08:35:37.420Z,56.00
2023-03-08T08:38:08.605Z,54.80
2023-03-08T08:40:37.461Z,53.90
2023-03-08T08:43:05.280Z,54.40
2023-03-08T08:45:33.823Z,54.90
2023-03-08T08:48:01.975Z,56.00
2023-03-08T08:50:29.525Z,53.20
2023-03-08T08:52:57.266Z,52.00
2023-03-08T08:55:25.236Z,52.90
2023-03-08T08:57:52.806Z,51.00
2023-03-08T09:00:20.479Z,53.20
2023-03-08T09:02:48.224Z,53.90
2023-03-08T09:05:17.010Z,55.20
2023-03-08T09:07:44.602Z,54.50
2023-03-08T09:10:13.245Z,52.60
2023-03-08T09:12:42.459Z,52.30
2023-03-08T09:15:11.818Z,53.90
2023-03-08T09:17:39.813Z,53.80
2023-03-08T09:20:18.425Z,55.70
2023-03-08T09:22:46.282Z,56.40
2023-03-08T09:25:15.772Z,55.20
2023-03-08T09:27:43.726Z,54.70
2023-03-08T09:30:13.469Z,54.10
2023-03-08T09:32:41.690Z,54.10
2023-03-08T09:35:10.323Z,54.00
2023-03-08T09:37:38.395Z,54.80
2023-03-08T09:40:10.664Z,54.60
2023-03-08T09:42:39.047Z,54.20
2023-03-08T09:45:39.049Z,53.70
2023-03-08T09:48:18.425Z,55.30
2023-03-08T09:50:46.836Z,54.60
2023-03-08T09:53:21.490Z,53.30
2023-03-08T09:55:51.719Z,54.60
2023-03-08T09:58:31.022Z,55.30
2023-03-08T10:01:02.979Z,55.00
2023-03-08T10:03:36.087Z,55.90
2023-03-08T10:06:07.069Z,55.50
2023-03-08T10:08:46.705Z,55.10
2023-03-08T10:11:37.586Z,54.70
2023-03-08T10:14:18.621Z,54.90
2023-03-08T10:16:52.956Z,54.70
2023-03-08T10:19:26.990Z,55.20
2023-03-08T10:21:55.721Z,54.40
2023-03-08T10:24:37.586Z,54.20
2023-03-08T10:27:17.018Z,54.20
2023-03-08T10:29:51.863Z,55.10
2023-03-08T10:32:20.173Z,55.40
2023-03-08T10:34:48.768Z,56.00
2023-03-08T10:37:16.802Z,55.30
2023-03-08T10:39:55.316Z,55.60
2023-03-08T10:42:24.344Z,55.50
2023-03-08T10:44:56.457Z,55.90
2023-03-08T10:47:29.597Z,55.70
2023-03-08T10:50:26.587Z,55.80
2023-03-08T10:52:54.216Z,55.70
2023-03-08T10:55:23.137Z,55.80
2023-03-08T10:57:53.312Z,56.00
2023-03-08T11:00:20.947Z,56.30
2023-03-08T11:02:48.859Z,56.40
2023-03-08T11:05:21.109Z,56.50
2023-03-08T11:07:53.088Z,56.60
2023-03-08T11:10:24.480Z,56.70
2023-03-08T11:13:12.126Z,56.90
2023-03-08T11:15:41.969Z,56.90
2023-03-08T11:18:10.897Z,57.20
2023-03-08T11:20:50.515Z,57.50
2023-03-08T11:23:24.170Z,57.70
2023-03-08T11:26:04.612Z,57.80
2023-03-08T11:28:53.129Z,57.90
2023-03-08T11:31:24.210Z,58.10
2023-03-08T11:33:55.285Z,58.20
2023-03-08T11:36:26.013Z,58.40
2023-03-08T11:39:03.299Z,58.50
2023-03-08T11:41:50.894Z,58.70
2023-03-08T11:44:39.645Z,59.00
2023-03-08T11:47:10.212Z,59.10
2023-03-08T11:49:38.539Z,59.30
2023-03-08T11:52:06.918Z,59.50
2023-03-08T11:54:43.682Z,59.60
2023-03-08T11:57:12.692Z,59.70
2023-03-08T11:59:43.417Z,59.90
2023-03-08T12:02:31.430Z,60.10
2023-03-08T12:05:02.332Z,60.40
2023-03-08T12:07:45.627Z,61.50
2023-03-08T12:10:21.633Z,61.60
2023-03-08T12:12:49.175Z,61.80
2023-03-08T12:15:19.642Z,62.30
2023-03-08T12:17:51.477Z,62.80
2023-03-08T12:20:20.426Z,63.30
2023-03-08T12:22:51.723Z,63.10
2023-03-08T12:25:33.620Z,63.00
2023-03-08T12:28:13.300Z,63.20
2023-03-08T12:30:52.704Z,63.20
2023-03-08T12:33:20.613Z,63.10
2023-03-08T12:35:56.007Z,63.10
2023-03-08T12:38:23.688Z,63.50
2023-03-08T12:40:52.678Z,63.20
2023-03-08T12:43:20.206Z,63.10
2023-03-08T12:45:48.600Z,62.90
2023-03-08T12:48:22.805Z,63.00
2023-03-08T12:51:02.757Z,63.30
2023-03-08T12:54:06.427Z,63.30
2023-03-08T12:56:37.759Z,63.20
2023-03-08T12:59:11.820Z,63.60
2023-03-08T13:01:40.932Z,63.40
2023-03-08T13:04:39.105Z,63.10
2023-03-08T13:07:29.874Z,63.10
2023-03-08T13:10:05.289Z,63.10
2023-03-08T13:12:37.332Z,63.50
2023-03-08T13:15:25.102Z,63.40
2023-03-08T13:17:54.766Z,63.80
2023-03-08T13:20:27.162Z,63.40
2023-03-08T13:23:00.667Z,63.40
2023-03-08T13:25:34.835Z,63.30
2023-03-08T13:28:06.816Z,63.30
2023-03-08T13:30:38.772Z,63.40
2023-03-08T13:33:13.110Z,63.50
2023-03-08T13:35:41.635Z,63.60
2023-03-08T13:38:19.954Z,63.50
2023-03-08T13:40:54.428Z,63.50
2023-03-08T13:43:26.176Z,63.60
2023-03-08T13:45:55.122Z,63.50
2023-03-08T13:48:23.381Z,63.70
2023-03-08T13:50:52.556Z,63.80
2023-03-08T13:53:24.693Z,64.00
2023-03-08T13:55:54.301Z,64.20
2023-03-08T13:58:28.730Z,64.20
2023-03-08T14:01:19.596Z,64.30
2023-03-08T14:03:47.540Z,64.50
2023-03-08T14:06:26.108Z,64.60
2023-03-08T14:08:54.759Z,65.10
2023-03-08T14:11:23.603Z,64.80
2023-03-08T14:13:52.950Z,64.90
2023-03-08T14:16:26.165Z,64.80
2023-03-08T14:18:53.857Z,64.80
2023-03-08T14:21:24.564Z,65.10
2023-03-08T14:23:55.273Z,65.20
2023-03-08T14:26:39.559Z,65.30
2023-03-08T14:29:22.044Z,65.50
2023-03-08T14:32:07.422Z,65.50
2023-03-08T14:34:36.416Z,65.30
2023-03-08T14:37:06.044Z,65.20
2023-03-08T14:39:34.944Z,65.20
2023-03-08T14:42:21.134Z,65.40
2023-03-08T14:45:00.167Z,65.80
2023-03-08T14:47:29.172Z,65.60
2023-03-08T14:50:04.659Z,65.90
2023-03-08T14:52:34.938Z,65.90
2023-03-08T14:55:03.719Z,65.90
2023-03-08T14:57:31.306Z,65.80
2023-03-08T15:00:07.816Z,66.10
2023-03-08T15:02:36.095Z,65.90
2023-03-08T15:05:03.957Z,65.90
2023-03-08T15:07:33.348Z,65.70
2023-03-08T15:10:02.313Z,65.70
2023-03-08T15:12:29.849Z,66.50
2023-03-08T15:14:57.331Z,65.60
2023-03-08T15:17:24.878Z,65.60
2023-03-08T15:19:52.346Z,65.70
2023-03-08T15:22:20.715Z,65.80
2023-03-08T15:24:49.164Z,65.90
2023-03-08T15:27:16.719Z,65.90
2023-03-08T15:29:44.219Z,66.00
2023-03-08T15:32:11.863Z,65.80
2023-03-08T15:34:40.956Z,66.10
2023-03-08T15:37:11.805Z,66.40
2023-03-08T15:39:39.315Z,66.50
2023-03-08T15:42:06.824Z,66.50
2023-03-08T15:44:34.343Z,66.50
2023-03-08T15:47:02.129Z,66.50
2023-03-08T15:49:29.691Z,66.60
2023-03-08T15:51:57.410Z,67.10
2023-03-08T15:54:24.955Z,67.20
2023-03-08T15:56:54.664Z,67.20
2023-03-08T15:59:22.273Z,66.80
2023-03-08T16:01:49.787Z,67.40
2023-03-08T16:04:18.160Z,67.20
2023-03-08T16:06:45.905Z,67.50
2023-03-08T16:09:13.514Z,67.70
2023-03-08T16:11:41.310Z,67.80
2023-03-08T16:14:08.856Z,68.10
2023-03-08T16:16:45.180Z,68.30
2023-03-08T16:19:13.445Z,68.10
2023-03-08T16:21:40.903Z,68.50
2023-03-08T16:24:08.408Z,68.70
2023-03-08T16:26:35.907Z,68.60
2023-03-08T16:29:03.456Z,69.30
2023-03-08T16:31:33.459Z,70.20
2023-03-08T16:34:04.733Z,71.10
2023-03-08T16:36:33.051Z,70.20
2023-03-08T16:39:00.584Z,70.80
2023-03-08T16:41:30.250Z,71.30
2023-03-08T16:43:58.257Z,71.20
2023-03-08T16:46:25.800Z,72.80
2023-03-08T16:48:57.090Z,73.10
2023-03-08T16:51:25.902Z,73.20
2023-03-08T16:53:53.734Z,73.20
2023-03-08T16:56:22.441Z,73.90
2023-03-08T16:58:50.013Z,73.20
2023-03-08T17:01:18.440Z,73.50
2023-03-08T17:03:46.245Z,72.90
2023-03-08T17:06:15.408Z,72.80
2023-03-08T17:08:43.113Z,72.50
2023-03-08T17:11:17.577Z,72.70
2023-03-08T17:13:47.913Z,72.60
2023-03-08T17:16:15.553Z,73.20
2023-03-08T17:18:43.040Z,73.70
2023-03-08T17:21:10.606Z,73.20
2023-03-08T17:23:38.132Z,73.30
2023-03-08T17:26:06.556Z,73.30
2023-03-08T17:28:34.093Z,72.60
2023-03-08T17:31:02.144Z,72.50
2023-03-08T17:33:29.946Z,72.70
2023-03-08T17:36:00.341Z,72.60
2023-03-08T17:38:28.538Z,73.40
2023-03-08T17:40:56.012Z,72.90
2023-03-08T17:43:23.606Z,73.00
2023-03-08T17:46:00.275Z,74.00
2023-03-08T17:48:27.874Z,73.90
2023-03-08T17:50:55.569Z,73.60
2023-03-08T17:53:23.045Z,73.80
2023-03-08T17:55:50.656Z,73.50
2023-03-08T17:58:20.053Z,73.80
2023-03-08T18:00:47.612Z,74.70
2023-03-08T18:03:15.064Z,74.20
2023-03-08T18:05:47.903Z,74.10
2023-03-08T18:08:15.381Z,74.00
2023-03-08T18:10:42.889Z,74.40
2023-03-08T18:13:10.571Z,73.70
2023-03-08T18:15:39.032Z,73.70
2023-03-08T18:18:08.604Z,73.40
2023-03-08T18:20:36.143Z,73.30
2023-03-08T18:23:05.264Z,74.00
2023-03-08T18:25:32.721Z,73.00
2023-03-08T18:28:00.531Z,72.30
2023-03-08T18:30:28.432Z,72.50
2023-03-08T18:32:57.296Z,72.60
2023-03-08T18:35:24.865Z,72.90
2023-03-08T18:37:52.362Z,72.70
2023-03-08T18:40:20.063Z,72.80
2023-03-08T18:42:47.626Z,73.30
2023-03-08T18:45:20.206Z,73.40
2023-03-08T18:47:51.076Z,73.50
2023-03-08T18:50:19.058Z,73.20
2023-03-08T18:52:46.844Z,73.40
2023-03-08T18:55:14.436Z,73.50
2023-03-08T18:57:41.959Z,73.50
2023-03-08T19:00:12.857Z,74.20
2023-03-08T19:02:40.412Z,73.50
2023-03-08T19:05:08.168Z,73.70
2023-03-08T19:07:36.107Z,74.60
2023-03-08T19:10:03.857Z,74.80
2023-03-08T19:12:34.687Z,75.40
2023-03-08T19:15:02.272Z,76.00
2023-03-08T19:17:29.794Z,75.90
2023-03-08T19:19:57.335Z,76.40
2023-03-08T19:22:24.801Z,76.70
2023-03-08T19:24:52.259Z,76.90
2023-03-08T19:27:20.120Z,77.00
2023-03-08T19:29:47.630Z,75.70
2023-03-08T19:32:16.157Z,77.30
2023-03-08T19:34:45.020Z,77.70
2023-03-08T19:37:13.681Z,77.90
2023-03-08T19:39:41.766Z,79.60
2023-03-08T19:42:11.451Z,77.60
2023-03-08T19:44:39.227Z,77.70
2023-03-08T19:47:07.060Z,78.00
2023-03-08T19:49:36.608Z,78.60
2023-03-08T19:52:05.958Z,78.20
2023-03-08T19:54:34.162Z,77.70
2023-03-08T19:57:02.977Z,77.60
2023-03-08T19:59:31.112Z,77.30
2023-03-08T20:01:58.726Z,77.70
2023-03-08T20:04:26.253Z,78.20
2023-03-08T20:06:53.778Z,78.50
2023-03-08T20:09:22.793Z,78.10
2023-03-08T20:11:53.346Z,77.10
2023-03-08T20:14:21.515Z,76.70
2023-03-08T20:16:49.280Z,76.80
2023-03-08T20:19:17.894Z,77.40
2023-03-08T20:21:45.457Z,77.60
2023-03-08T20:24:13.707Z,77.40
2023-03-08T20:26:42.227Z,78.40
2023-03-08T20:29:09.800Z,77.80
2023-03-08T20:31:37.344Z,78.70
2023-03-08T20:34:04.911Z,78.20
2023-03-08T20:36:33.374Z,77.10
2023-03-08T20:39:01.082Z,77.80
2023-03-08T20:41:28.690Z,77.80
2023-03-08T20:43:56.677Z,77.70
2023-03-08T20:46:25.773Z,77.80
2023-03-08T20:48:53.486Z,77.20
2023-03-08T20:51:22.367Z,78.80
2023-03-08T20:53:51.118Z,78.90
2023-03-08T20:56:19.905Z,78.30
2023-03-08T20:58:47.840Z,78.10
2023-03-08T21:01:17.385Z,77.50
2023-03-08T21:03:45.375Z,77.60
2023-03-08T21:06:12.966Z,76.80
2023-03-08T21:08:41.680Z,76.80
2023-03-08T21:11:09.229Z,76.90
2023-03-08T21:13:36.800Z,78.30
2023-03-08T21:16:05.681Z,78.30
2023-03-08T21:18:33.250Z,78.00
2023-03-08T21:21:00.874Z,77.90
2023-03-08T21:23:28.844Z,78.50
2023-03-08T21:26:00.571Z,78.60
2023-03-08T21:28:28.488Z,78.20
2023-03-08T21:30:56.001Z,79.50
2023-03-08T21:33:23.515Z,78.80
2023-03-08T21:35:51.061Z,78.20
2023-03-08T21:38:18.637Z,78.20
2023-03-08T21:40:46.149Z,79.10
2023-03-08T21:43:13.742Z,79.30
2023-03-08T21:45:41.646Z,79.60
2023-03-08T21:48:10.677Z,79.40
2023-03-08T21:50:39.959Z,79.60
2023-03-08T21:53:08.291Z,80.00
2023-03-08T21:55:39.176Z,80.20
2023-03-08T21:58:07.053Z,80.20
2023-03-08T22:00:34.852Z,79.60
2023-03-08T22:03:02.431Z,81.20
2023-03-08T22:05:31.203Z,80.70
2023-03-08T22:07:58.738Z,81.30
2023-03-08T22:10:26.249Z,80.00
2023-03-08T22:12:53.929Z,79.90
2023-03-08T22:15:21.488Z,80.60
2023-03-08T22:17:48.985Z,81.80
2023-03-08T22:20:16.606Z,81.50
2023-03-08T22:22:44.474Z,81.70
2023-03-08T22:25:13.831Z,81.10
2023-03-08T22:27:41.406Z,80.20
2023-03-08T22:30:11.693Z,80.90
2023-03-08T22:32:40.858Z,80.10
2023-03-08T22:35:09.423Z,81.00
2023-03-08T22:37:37.079Z,80.70
2023-03-08T22:40:07.494Z,79.80
2023-03-08T22:42:35.180Z,80.00
2023-03-08T22:45:04.436Z,80.30
2023-03-08T22:47:31.946Z,80.80
2023-03-08T22:49:59.538Z,81.40
2023-03-08T22:52:27.031Z,81.70
2023-03-08T22:54:54.549Z,81.20
2023-03-08T22:57:22.363Z,82.00
2023-03-08T22:59:49.875Z,82.50
2023-03-08T23:02:17.414Z,83.30
2023-03-08T23:04:44.986Z,82.70
2023-03-08T23:07:12.501Z,82.50
2023-03-08T23:09:40.081Z,82.10
2023-03-08T23:12:08.555Z,81.40
2023-03-08T23:14:36.170Z,80.90
2023-03-08T23:17:03.668Z,80.70
2023-03-08T23:19:31.418Z,82.50
2023-03-08T23:21:59.064Z,82.20
2023-03-08T23:24:26.596Z,82.20
2023-03-08T23:27:00.386Z,82.30
2023-03-08T23:29:27.926Z,82.10
2023-03-08T23:31:55.765Z,81.70
2023-03-08T23:34:23.415Z,82.10
2023-03-08T23:36:51.708Z,83.20
2023-03-08T23:39:19.252Z,83.10
2023-03-08T23:41:46.838Z,82.50
2023-03-08T23:44:15.299Z,83.20
2023-03-08T23:46:46.394Z,83.80
2023-03-08T23:49:14.003Z,83.40
2023-03-08T23:51:41.572Z,84.10
2023-03-08T23:54:10.256Z,83.00
2023-03-08T23:56:39.558Z,83.10
2023-03-08T23:59:22.746Z,82.60
